sensor_id;sensor_type;location;lat;lon;timestamp;pressure;altitude;pressure_sealevel;temperature;humidity
33795;BME280;51430;52.242;21.118;2024-01-11T00:01:50;101178.13;;;-5.03;88.17
33795;BME280;51430;52.242;21.118;2024-01-11T00:04:18;101171.34;;;-5.01;87.84
33795;BME280;51430;52.242;21.118;2024-01-11T00:06:46;101164.53;;;-5.01;87.56
33795;BME280;51430;52.242;21.118;2024-01-11T00:09:14;101155.70;;;-5.04;87.07
33795;BME280;51430;52.242;21.118;2024-01-11T00:11:42;101152.80;;;-5.07;86.61
33795;BME280;51430;52.242;21.118;2024-01-11T00:14:10;101153.33;;;-5.05;86.85
33795;BME280;51430;52.242;21.118;2024-01-11T00:26:52;101160.13;;;-5.00;86.98
33795;BME280;51430;52.242;21.118;2024-01-11T00:29:20;101150.95;;;-5.08;86.44
33795;BME280;51430;52.242;21.118;2024-01-11T00:31:48;101149.76;;;-5.03;86.48
33795;BME280;51430;52.242;21.118;2024-01-11T00:34:16;101161.81;;;-5.01;86.53
33795;BME280;51430;52.242;21.118;2024-01-11T00:37:02;101160.64;;;-5.06;86.35
33795;BME280;51430;52.242;21.118;2024-01-11T00:39:29;101151.63;;;-5.22;86.61
33795;BME280;51430;52.242;21.118;2024-01-11T00:41:57;101144.66;;;-5.11;86.46
33795;BME280;51430;52.242;21.118;2024-01-11T00:44:25;101144.83;;;-5.07;86.09
33795;BME280;51430;52.242;21.118;2024-01-11T00:46:53;101162.67;;;-5.09;86.19
33795;BME280;51430;52.242;21.118;2024-01-11T00:49:21;101171.16;;;-5.14;86.56
33795;BME280;51430;52.242;21.118;2024-01-11T00:51:49;101184.26;;;-5.08;86.63
33795;BME280;51430;52.242;21.118;2024-01-11T00:54:17;101172.35;;;-5.00;86.54
33795;BME280;51430;52.242;21.118;2024-01-11T00:56:45;101163.18;;;-5.01;85.94
33795;BME280;51430;52.242;21.118;2024-01-11T00:59:13;101149.93;;;-5.04;86.04
33795;BME280;51430;52.242;21.118;2024-01-11T01:01:46;101143.47;;;-5.11;86.13
33795;BME280;51430;52.242;21.118;2024-01-11T01:04:14;101132.23;;;-5.10;86.26
33795;BME280;51430;52.242;21.118;2024-01-11T01:06:42;101135.99;;;-5.13;86.35
33795;BME280;51430;52.242;21.118;2024-01-11T01:09:11;101143.46;;;-5.13;86.75
33795;BME280;51430;52.242;21.118;2024-01-11T01:11:39;101155.54;;;-5.12;87.18
33795;BME280;51430;52.242;21.118;2024-01-11T01:14:07;101157.41;;;-5.11;87.15
33795;BME280;51430;52.242;21.118;2024-01-11T01:16:35;101151.97;;;-5.01;87.56
33795;BME280;51430;52.242;21.118;2024-01-11T01:19:03;101144.99;;;-4.97;87.40
33795;BME280;51430;52.242;21.118;2024-01-11T01:21:31;101150.10;;;-5.03;87.28
33795;BME280;51430;52.242;21.118;2024-01-11T01:24:06;101142.10;;;-5.01;87.49
33795;BME280;51430;52.242;21.118;2024-01-11T01:26:34;101141.09;;;-4.96;87.80
33795;BME280;51430;52.242;21.118;2024-01-11T01:29:02;101146.35;;;-4.90;87.62
33795;BME280;51430;52.242;21.118;2024-01-11T01:31:30;101150.27;;;-4.86;87.59
33795;BME280;51430;52.242;21.118;2024-01-11T01:33:58;101151.95;;;-4.81;87.87
33795;BME280;51430;52.242;21.118;2024-01-11T01:36:25;101141.77;;;-4.78;88.13
33795;BME280;51430;52.242;21.118;2024-01-11T01:38:55;101129.17;;;-4.77;88.12
33795;BME280;51430;52.242;21.118;2024-01-11T01:41:23;101125.44;;;-4.76;88.04
33795;BME280;51430;52.242;21.118;2024-01-11T01:43:51;101120.52;;;-4.82;88.56
33795;BME280;51430;52.242;21.118;2024-01-11T01:46:22;101127.14;;;-4.79;88.83
33795;BME280;51430;52.242;21.118;2024-01-11T01:48:56;101124.08;;;-4.70;88.95
33795;BME280;51430;52.242;21.118;2024-01-11T01:51:27;101127.47;;;-4.64;88.82
33795;BME280;51430;52.242;21.118;2024-01-11T01:53:56;101119.30;;;-4.68;89.06
33795;BME280;51430;52.242;21.118;2024-01-11T01:56:25;101127.62;;;-4.63;89.01
33795;BME280;51430;52.242;21.118;2024-01-11T01:58:54;101117.94;;;-4.67;88.89
33795;BME280;51430;52.242;21.118;2024-01-11T02:01:23;101120.00;;;-4.75;89.36
33795;BME280;51430;52.242;21.118;2024-01-11T02:03:52;101138.69;;;-4.74;90.05
33795;BME280;51430;52.242;21.118;2024-01-11T02:06:23;101126.80;;;-4.75;90.22
33795;BME280;51430;52.242;21.118;2024-01-11T02:08:54;101119.14;;;-4.67;90.22
33795;BME280;51430;52.242;21.118;2024-01-11T02:11:24;101128.98;;;-4.62;90.04
33795;BME280;51430;52.242;21.118;2024-01-11T02:13:53;101129.66;;;-4.62;89.77
33795;BME280;51430;52.242;21.118;2024-01-11T02:16:22;101123.73;;;-4.69;90.17
33795;BME280;51430;52.242;21.118;2024-01-11T02:18:50;101114.02;;;-4.66;90.28
33795;BME280;51430;52.242;21.118;2024-01-11T02:21:18;101116.75;;;-4.68;90.65
33795;BME280;51430;52.242;21.118;2024-01-11T02:24:04;101113.36;;;-4.72;90.81
33795;BME280;51430;52.242;21.118;2024-01-11T02:26:34;101109.45;;;-4.81;91.15
33795;BME280;51430;52.242;21.118;2024-01-11T02:29:03;101102.48;;;-4.76;91.45
33795;BME280;51430;52.242;21.118;2024-01-11T02:31:31;101118.80;;;-4.76;91.57
33795;BME280;51430;52.242;21.118;2024-01-11T02:33:59;101127.31;;;-4.78;91.57
33795;BME280;51430;52.242;21.118;2024-01-11T02:36:27;101108.10;;;-4.79;92.32
33795;BME280;51430;52.242;21.118;2024-01-11T02:38:55;101100.96;;;-4.77;92.56
33795;BME280;51430;52.242;21.118;2024-01-11T02:41:23;101096.19;;;-4.77;92.70
33795;BME280;51430;52.242;21.118;2024-01-11T02:43:52;101087.85;;;-4.72;93.00
33795;BME280;51430;52.242;21.118;2024-01-11T02:46:21;101089.23;;;-4.78;93.00
33795;BME280;51430;52.242;21.118;2024-01-11T02:48:49;101094.99;;;-4.70;93.09
33795;BME280;51430;52.242;21.118;2024-01-11T02:51:17;101106.73;;;-4.73;93.17
33795;BME280;51430;52.242;21.118;2024-01-11T02:53:45;101105.89;;;-4.78;93.90
33795;BME280;51430;52.242;21.118;2024-01-11T02:56:13;101106.55;;;-4.71;93.76
33795;BME280;51430;52.242;21.118;2024-01-11T02:58:41;101111.14;;;-4.65;94.16
33795;BME280;51430;52.242;21.118;2024-01-11T03:01:09;101099.05;;;-4.59;93.93
33795;BME280;51430;52.242;21.118;2024-01-11T03:03:37;101088.51;;;-4.60;94.16
33795;BME280;51430;52.242;21.118;2024-01-11T03:06:05;101080.34;;;-4.61;94.24
33795;BME280;51430;52.242;21.118;2024-01-11T03:08:33;101078.66;;;-4.61;94.02
33795;BME280;51430;52.242;21.118;2024-01-11T03:11:02;101077.96;;;-4.58;94.44
33795;BME280;51430;52.242;21.118;2024-01-11T03:13:31;101078.48;;;-4.60;94.43
33795;BME280;51430;52.242;21.118;2024-01-11T03:15:59;101075.25;;;-4.63;94.64
33795;BME280;51430;52.242;21.118;2024-01-11T03:18:26;101073.04;;;-4.63;94.96
33795;BME280;51430;52.242;21.118;2024-01-11T03:20:54;101079.83;;;-4.53;95.21
33795;BME280;51430;52.242;21.118;2024-01-11T03:23:22;101081.16;;;-4.49;95.07
33795;BME280;51430;52.242;21.118;2024-01-11T03:25:50;101073.69;;;-4.51;95.26
33795;BME280;51430;52.242;21.118;2024-01-11T03:28:18;101056.85;;;-4.52;95.30
33795;BME280;51430;52.242;21.118;2024-01-11T03:30:46;101049.04;;;-4.58;95.37
33795;BME280;51430;52.242;21.118;2024-01-11T03:33:14;101032.73;;;-4.62;95.50
33795;BME280;51430;52.242;21.118;2024-01-11T03:35:42;101017.45;;;-4.66;96.12
33795;BME280;51430;52.242;21.118;2024-01-11T03:38:12;101012.02;;;-4.71;96.55
33795;BME280;51430;52.242;21.118;2024-01-11T03:40:39;101004.52;;;-4.67;96.91
33795;BME280;51430;52.242;21.118;2024-01-11T03:43:07;100998.90;;;-4.63;97.14
33795;BME280;51430;52.242;21.118;2024-01-11T03:45:35;100995.46;;;-4.55;97.42
33795;BME280;51430;52.242;21.118;2024-01-11T03:48:03;100991.54;;;-4.51;97.50
33795;BME280;51430;52.242;21.118;2024-01-11T03:50:31;100987.38;;;-4.41;97.50
33795;BME280;51430;52.242;21.118;2024-01-11T03:52:59;100983.48;;;-4.39;97.11
33795;BME280;51430;52.242;21.118;2024-01-11T03:55:27;100993.48;;;-4.37;97.19
33795;BME280;51430;52.242;21.118;2024-01-11T03:57:55;100993.48;;;-4.34;96.92
33795;BME280;51430;52.242;21.118;2024-01-11T04:00:25;100987.52;;;-4.33;96.77
33795;BME280;51430;52.242;21.118;2024-01-11T04:02:53;100985.63;;;-4.28;96.82
33795;BME280;51430;52.242;21.118;2024-01-11T04:05:21;100975.73;;;-4.25;96.86
33795;BME280;51430;52.242;21.118;2024-01-11T04:07:49;100971.45;;;-4.22;96.83
33795;BME280;51430;52.242;21.118;2024-01-11T04:10:17;100974.18;;;-4.21;96.86
33795;BME280;51430;52.242;21.118;2024-01-11T04:12:45;100970.79;;;-4.23;96.76
33795;BME280;51430;52.242;21.118;2024-01-11T04:15:13;100976.59;;;-4.23;96.91
33795;BME280;51430;52.242;21.118;2024-01-11T04:17:41;100978.98;;;-4.29;96.70
33795;BME280;51430;52.242;21.118;2024-01-11T04:20:10;100975.46;;;-4.37;97.14
33795;BME280;51430;52.242;21.118;2024-01-11T04:22:38;100971.55;;;-4.35;97.36
33795;BME280;51430;52.242;21.118;2024-01-11T04:25:06;100980.68;;;-4.27;97.66
33795;BME280;51430;52.242;21.118;2024-01-11T04:27:35;100982.90;;;-4.27;97.47
33795;BME280;51430;52.242;21.118;2024-01-11T04:30:05;100985.13;;;-4.31;97.56
33795;BME280;51430;52.242;21.118;2024-01-11T04:32:33;100979.30;;;-4.24;97.40
33795;BME280;51430;52.242;21.118;2024-01-11T04:35:02;100992.56;;;-4.20;97.31
33795;BME280;51430;52.242;21.118;2024-01-11T04:37:30;100999.54;;;-4.21;96.99
33795;BME280;51430;52.242;21.118;2024-01-11T04:39:58;100993.62;;;-4.27;96.50
33795;BME280;51430;52.242;21.118;2024-01-11T04:42:28;100989.66;;;-4.20;96.83
33795;BME280;51430;52.242;21.118;2024-01-11T04:44:55;100990.01;;;-4.19;96.59
33795;BME280;51430;52.242;21.118;2024-01-11T04:47:23;100986.33;;;-4.32;96.31
33795;BME280;51430;52.242;21.118;2024-01-11T04:49:52;100985.52;;;-4.42;97.10
33795;BME280;51430;52.242;21.118;2024-01-11T04:52:22;100987.06;;;-4.44;97.27
33795;BME280;51430;52.242;21.118;2024-01-11T04:54:49;100991.15;;;-4.43;97.71
33795;BME280;51430;52.242;21.118;2024-01-11T04:57:17;100979.05;;;-4.40;97.82
33795;BME280;51430;52.242;21.118;2024-01-11T04:59:45;100986.19;;;-4.38;98.07
33795;BME280;51430;52.242;21.118;2024-01-11T05:02:13;100984.35;;;-4.45;98.16
33795;BME280;51430;52.242;21.118;2024-01-11T05:04:41;100981.67;;;-4.53;98.34
33795;BME280;51430;52.242;21.118;2024-01-11T05:07:09;100972.00;;;-4.56;98.76
33795;BME280;51430;52.242;21.118;2024-01-11T05:09:37;100971.13;;;-4.52;99.13
33795;BME280;51430;52.242;21.118;2024-01-11T05:12:05;100963.15;;;-4.55;99.21
33795;BME280;51430;52.242;21.118;2024-01-11T05:14:33;100960.77;;;-4.55;99.83
33795;BME280;51430;52.242;21.118;2024-01-11T05:17:01;100951.60;;;-4.58;99.69
33795;BME280;51430;52.242;21.118;2024-01-11T05:19:29;100944.77;;;-4.52;99.95
33795;BME280;51430;52.242;21.118;2024-01-11T05:21:57;100933.84;;;-4.47;99.94
33795;BME280;51430;52.242;21.118;2024-01-11T05:24:25;100926.17;;;-4.44;99.95
33795;BME280;51430;52.242;21.118;2024-01-11T05:26:53;100922.05;;;-4.37;99.79
33795;BME280;51430;52.242;21.118;2024-01-11T05:29:56;100923.70;;;-4.32;99.26
33795;BME280;51430;52.242;21.118;2024-01-11T05:32:22;100922.09;;;-4.45;98.95
33795;BME280;51430;52.242;21.118;2024-01-11T05:34:49;100918.64;;;-4.37;98.88
33795;BME280;51430;52.242;21.118;2024-01-11T05:37:16;100918.75;;;-4.27;98.90
33795;BME280;51430;52.242;21.118;2024-01-11T05:39:43;100909.52;;;-4.21;98.44
33795;BME280;51430;52.242;21.118;2024-01-11T05:42:09;100901.85;;;-4.19;98.18
33795;BME280;51430;52.242;21.118;2024-01-11T05:44:36;100900.05;;;-4.07;97.72
33795;BME280;51430;52.242;21.118;2024-01-11T05:47:03;100904.96;;;-4.04;97.42
33795;BME280;51430;52.242;21.118;2024-01-11T05:49:30;100904.56;;;-3.96;97.17
33795;BME280;51430;52.242;21.118;2024-01-11T05:51:59;100894.60;;;-4.07;95.77
33795;BME280;51430;52.242;21.118;2024-01-11T05:54:26;100896.85;;;-4.10;95.54
33795;BME280;51430;52.242;21.118;2024-01-11T05:56:54;100894.45;;;-4.09;95.31
33795;BME280;51430;52.242;21.118;2024-01-11T05:59:25;100885.23;;;-4.06;95.64
33795;BME280;51430;52.242;21.118;2024-01-11T06:01:52;100873.36;;;-4.09;95.67
33795;BME280;51430;52.242;21.118;2024-01-11T06:11:10;100865.31;;;-4.04;95.29
33795;BME280;51430;52.242;21.118;2024-01-11T06:13:40;100869.91;;;-4.04;95.97
33795;BME280;51430;52.242;21.118;2024-01-11T06:16:09;100861.11;;;-3.91;95.94
33795;BME280;51430;52.242;21.118;2024-01-11T06:18:40;100866.17;;;-3.86;95.60
33795;BME280;51430;52.242;21.118;2024-01-11T06:21:08;100854.74;;;-3.84;95.42
33795;BME280;51430;52.242;21.118;2024-01-11T06:23:39;100859.73;;;-3.72;95.40
33795;BME280;51430;52.242;21.118;2024-01-11T06:26:07;100861.39;;;-3.68;94.94
33795;BME280;51430;52.242;21.118;2024-01-11T06:28:35;100863.14;;;-3.73;94.84
33795;BME280;51430;52.242;21.118;2024-01-11T06:31:03;100857.70;;;-3.74;95.16
33795;BME280;51430;52.242;21.118;2024-01-11T06:33:31;100855.59;;;-3.84;94.75
33795;BME280;51430;52.242;21.118;2024-01-11T06:36:01;100857.33;;;-3.87;94.95
33795;BME280;51430;52.242;21.118;2024-01-11T06:38:29;100853.35;;;-3.81;95.49
33795;BME280;51430;52.242;21.118;2024-01-11T06:40:57;100846.59;;;-3.85;95.49
33795;BME280;51430;52.242;21.118;2024-01-11T06:43:26;100841.59;;;-3.81;95.75
33795;BME280;51430;52.242;21.118;2024-01-11T06:45:54;100851.42;;;-3.76;95.87
33795;BME280;51430;52.242;21.118;2024-01-11T06:48:22;100846.20;;;-3.65;95.64
33795;BME280;51430;52.242;21.118;2024-01-11T06:50:50;100840.61;;;-3.67;95.43
33795;BME280;51430;52.242;21.118;2024-01-11T06:53:18;100846.56;;;-3.67;95.75
33795;BME280;51430;52.242;21.118;2024-01-11T06:55:46;100846.91;;;-3.68;95.48
33795;BME280;51430;52.242;21.118;2024-01-11T06:58:15;100847.10;;;-3.70;95.70
33795;BME280;51430;52.242;21.118;2024-01-11T07:00:43;100849.79;;;-3.65;95.94
33795;BME280;51430;52.242;21.118;2024-01-11T07:03:12;100848.59;;;-3.64;96.12
33795;BME280;51430;52.242;21.118;2024-01-11T07:05:41;100845.02;;;-3.65;96.29
33795;BME280;51430;52.242;21.118;2024-01-11T07:08:09;100837.50;;;-3.63;96.67
33795;BME280;51430;52.242;21.118;2024-01-11T07:10:37;100835.59;;;-3.59;96.68
33795;BME280;51430;52.242;21.118;2024-01-11T07:13:05;100835.83;;;-3.66;97.00
33795;BME280;51430;52.242;21.118;2024-01-11T07:15:34;100829.21;;;-3.68;97.33
33795;BME280;51430;52.242;21.118;2024-01-11T07:18:02;100824.08;;;-3.66;98.06
33795;BME280;51430;52.242;21.118;2024-01-11T07:20:48;100829.52;;;-3.49;98.06
33795;BME280;51430;52.242;21.118;2024-01-11T07:23:16;100827.75;;;-3.59;98.35
33795;BME280;51430;52.242;21.118;2024-01-11T07:25:44;100826.26;;;-3.63;98.71
33795;BME280;51430;52.242;21.118;2024-01-11T07:28:12;100830.48;;;-3.60;99.17
33795;BME280;51430;52.242;21.118;2024-01-11T07:30:41;100830.39;;;-3.51;99.51
33795;BME280;51430;52.242;21.118;2024-01-11T07:33:10;100832.52;;;-3.44;99.64
33795;BME280;51430;52.242;21.118;2024-01-11T07:35:41;100826.46;;;-3.36;99.88
33795;BME280;51430;52.242;21.118;2024-01-11T07:38:10;100815.05;;;-3.22;99.73
33795;BME280;51430;52.242;21.118;2024-01-11T07:40:38;100814.15;;;-3.20;99.97
33795;BME280;51430;52.242;21.118;2024-01-11T07:43:11;100819.52;;;-3.13;99.70
33795;BME280;51430;52.242;21.118;2024-01-11T07:45:39;100813.77;;;-3.15;99.71
33795;BME280;51430;52.242;21.118;2024-01-11T07:48:07;100818.45;;;-3.08;99.73
33795;BME280;51430;52.242;21.118;2024-01-11T07:50:36;100820.11;;;-3.04;99.57
33795;BME280;51430;52.242;21.118;2024-01-11T07:53:05;100811.23;;;-3.03;99.51
33795;BME280;51430;52.242;21.118;2024-01-11T07:55:33;100818.87;;;-3.02;99.66
33795;BME280;51430;52.242;21.118;2024-01-11T07:58:01;100831.73;;;-2.94;99.69
33795;BME280;51430;52.242;21.118;2024-01-11T08:03:04;100835.20;;;-2.99;99.62
33795;BME280;51430;52.242;21.118;2024-01-11T08:05:33;100831.87;;;-3.06;99.80
33795;BME280;51430;52.242;21.118;2024-01-11T08:08:00;100839.36;;;-2.91;99.85
33795;BME280;51430;52.242;21.118;2024-01-11T08:10:29;100835.34;;;-2.84;99.87
33795;BME280;51430;52.242;21.118;2024-01-11T08:13:07;100837.50;;;-2.79;99.48
33795;BME280;51430;52.242;21.118;2024-01-11T08:15:39;100839.73;;;-2.69;99.30
33795;BME280;51430;52.242;21.118;2024-01-11T08:18:09;100837.34;;;-2.68;98.64
33795;BME280;51430;52.242;21.118;2024-01-11T08:20:36;100837.55;;;-2.72;98.91
33795;BME280;51430;52.242;21.118;2024-01-11T08:23:08;100832.42;;;-2.70;98.81
33795;BME280;51430;52.242;21.118;2024-01-11T08:25:37;100834.21;;;-2.63;98.78
33795;BME280;51430;52.242;21.118;2024-01-11T08:28:05;100835.48;;;-2.58;99.03
33795;BME280;51430;52.242;21.118;2024-01-11T08:30:32;100841.95;;;-2.46;98.96
33795;BME280;51430;52.242;21.118;2024-01-11T08:33:03;100842.02;;;-2.40;99.11
33795;BME280;51430;52.242;21.118;2024-01-11T08:35:30;100844.67;;;-2.45;98.83
33795;BME280;51430;52.242;21.118;2024-01-11T08:37:59;100845.25;;;-2.49;98.93
33795;BME280;51430;52.242;21.118;2024-01-11T08:40:26;100834.01;;;-2.51;99.18
33795;BME280;51430;52.242;21.118;2024-01-11T08:42:53;100837.20;;;-2.47;99.55
33795;BME280;51430;52.242;21.118;2024-01-11T08:45:22;100841.25;;;-2.45;99.61
33795;BME280;51430;52.242;21.118;2024-01-11T08:54:53;100830.92;;;-2.39;100.00
33795;BME280;51430;52.242;21.118;2024-01-11T08:57:22;100835.67;;;-2.48;100.00
33795;BME280;51430;52.242;21.118;2024-01-11T08:59:50;100831.16;;;-2.43;100.00
33795;BME280;51430;52.242;21.118;2024-01-11T09:02:21;100830.00;;;-2.34;100.00
33795;BME280;51430;52.242;21.118;2024-01-11T09:04:55;100828.27;;;-2.23;100.00
33795;BME280;51430;52.242;21.118;2024-01-11T09:07:28;100821.52;;;-2.16;100.00
33795;BME280;51430;52.242;21.118;2024-01-11T09:10:03;100813.36;;;-2.19;100.00
33795;BME280;51430;52.242;21.118;2024-01-11T09:12:31;100814.86;;;-2.17;100.00
33795;BME280;51430;52.242;21.118;2024-01-11T09:15:00;100805.08;;;-2.04;100.00
33795;BME280;51430;52.242;21.118;2024-01-11T09:17:32;100805.55;;;-1.93;100.00
33795;BME280;51430;52.242;21.118;2024-01-11T09:20:01;100804.68;;;-1.82;100.00
33795;BME280;51430;52.242;21.118;2024-01-11T09:22:38;100803.23;;;-1.77;100.00
33795;BME280;51430;52.242;21.118;2024-01-11T09:25:07;100800.23;;;-1.73;99.71
33795;BME280;51430;52.242;21.118;2024-01-11T09:27:48;100794.85;;;-1.68;99.24
33795;BME280;51430;52.242;21.118;2024-01-11T09:30:20;100787.84;;;-1.59;98.68
33795;BME280;51430;52.242;21.118;2024-01-11T09:32:55;100784.27;;;-1.52;97.97
33795;BME280;51430;52.242;21.118;2024-01-11T09:35:23;100784.56;;;-1.48;97.32
33795;BME280;51430;52.242;21.118;2024-01-11T09:37:52;100779.14;;;-1.42;96.96
33795;BME280;51430;52.242;21.118;2024-01-11T09:40:23;100769.39;;;-1.34;96.43
33795;BME280;51430;52.242;21.118;2024-01-11T09:42:51;100774.85;;;-1.41;95.89
33795;BME280;51430;52.242;21.118;2024-01-11T09:45:20;100768.55;;;-1.43;95.44
33795;BME280;51430;52.242;21.118;2024-01-11T09:47:49;100766.67;;;-1.43;95.07
33795;BME280;51430;52.242;21.118;2024-01-11T09:50:18;100759.23;;;-1.39;95.01
33795;BME280;51430;52.242;21.118;2024-01-11T09:52:48;100761.62;;;-1.30;94.89
33795;BME280;51430;52.242;21.118;2024-01-11T09:55:18;100762.60;;;-1.28;94.97
33795;BME280;51430;52.242;21.118;2024-01-11T09:57:52;100749.23;;;-1.34;94.64
33795;BME280;51430;52.242;21.118;2024-01-11T10:00:24;100748.45;;;-1.38;94.85
33795;BME280;51430;52.242;21.118;2024-01-11T10:02:52;100745.63;;;-1.34;94.71
33795;BME280;51430;52.242;21.118;2024-01-11T10:05:22;100750.20;;;-1.32;94.75
33795;BME280;51430;52.242;21.118;2024-01-11T10:07:51;100754.52;;;-1.34;94.69
33795;BME280;51430;52.242;21.118;2024-01-11T10:10:21;100740.52;;;-1.43;94.60
33795;BME280;51430;52.242;21.118;2024-01-11T10:12:52;100740.02;;;-1.52;95.12
33795;BME280;51430;52.242;21.118;2024-01-11T10:15:24;100745.75;;;-1.48;95.51
33795;BME280;51430;52.242;21.118;2024-01-11T10:17:53;100745.81;;;-1.51;95.87
33795;BME280;51430;52.242;21.118;2024-01-11T10:20:24;100744.27;;;-1.51;96.18
33795;BME280;51430;52.242;21.118;2024-01-11T10:22:53;100745.08;;;-1.48;96.77
33795;BME280;51430;52.242;21.118;2024-01-11T10:25:21;100746.82;;;-1.42;96.67
33795;BME280;51430;52.242;21.118;2024-01-11T10:27:53;100745.13;;;-1.43;97.19
33795;BME280;51430;52.242;21.118;2024-01-11T10:30:21;100741.05;;;-1.29;97.23
33795;BME280;51430;52.242;21.118;2024-01-11T10:32:57;100738.65;;;-1.28;97.23
33795;BME280;51430;52.242;21.118;2024-01-11T10:35:25;100737.59;;;-1.26;97.35
33795;BME280;51430;52.242;21.118;2024-01-11T10:37:55;100737.82;;;-1.21;97.54
33795;BME280;51430;52.242;21.118;2024-01-11T10:40:25;100737.25;;;-1.11;97.65
33795;BME280;51430;52.242;21.118;2024-01-11T10:42:58;100728.44;;;-1.07;97.59
33795;BME280;51430;52.242;21.118;2024-01-11T10:45:33;100720.83;;;-1.04;97.58
33795;BME280;51430;52.242;21.118;2024-01-11T10:48:15;100720.34;;;-0.89;97.46
33795;BME280;51430;52.242;21.118;2024-01-11T10:50:45;100713.86;;;-0.91;96.69
33795;BME280;51430;52.242;21.118;2024-01-11T10:53:25;100714.39;;;-0.91;96.68
33795;BME280;51430;52.242;21.118;2024-01-11T10:55:58;100713.50;;;-0.90;96.95
33795;BME280;51430;52.242;21.118;2024-01-11T10:58:27;100710.52;;;-0.80;97.21
33795;BME280;51430;52.242;21.118;2024-01-11T11:00:56;100719.85;;;-0.76;97.10
33795;BME280;51430;52.242;21.118;2024-01-11T11:03:26;100718.55;;;-0.72;97.21
33795;BME280;51430;52.242;21.118;2024-01-11T11:05:55;100709.31;;;-0.65;97.14
33795;BME280;51430;52.242;21.118;2024-01-11T11:08:24;100710.23;;;-0.61;97.10
33795;BME280;51430;52.242;21.118;2024-01-11T11:10:56;100697.57;;;-0.68;96.87
33795;BME280;51430;52.242;21.118;2024-01-11T11:13:26;100689.11;;;-0.65;97.34
33795;BME280;51430;52.242;21.118;2024-01-11T11:15:54;100678.28;;;-0.77;97.59
33795;BME280;51430;52.242;21.118;2024-01-11T11:18:29;100671.50;;;-0.79;98.29
33795;BME280;51430;52.242;21.118;2024-01-11T11:20:58;100668.16;;;-0.83;98.86
33795;BME280;51430;52.242;21.118;2024-01-11T11:23:28;100670.70;;;-0.82;99.20
33795;BME280;51430;52.242;21.118;2024-01-11T11:25:57;100667.23;;;-0.80;99.46
33795;BME280;51430;52.242;21.118;2024-01-11T11:28:26;100669.84;;;-0.68;99.64
33795;BME280;51430;52.242;21.118;2024-01-11T11:30:57;100667.41;;;-0.66;99.46
33795;BME280;51430;52.242;21.118;2024-01-11T11:33:29;100667.17;;;-0.70;99.23
33795;BME280;51430;52.242;21.118;2024-01-11T11:36:00;100665.24;;;-0.69;99.11
33795;BME280;51430;52.242;21.118;2024-01-11T11:38:32;100664.73;;;-0.69;98.98
33795;BME280;51430;52.242;21.118;2024-01-11T11:41:01;100657.58;;;-0.64;99.45
33795;BME280;51430;52.242;21.118;2024-01-11T11:43:29;100652.64;;;-0.58;99.27
33795;BME280;51430;52.242;21.118;2024-01-11T11:46:00;100657.20;;;-0.56;99.45
33795;BME280;51430;52.242;21.118;2024-01-11T11:48:49;100654.58;;;-0.54;99.72
33795;BME280;51430;52.242;21.118;2024-01-11T11:51:20;100655.43;;;-0.47;99.34
33795;BME280;51430;52.242;21.118;2024-01-11T11:53:52;100654.61;;;-0.48;99.47
33795;BME280;51430;52.242;21.118;2024-01-11T11:56:22;100655.59;;;-0.53;99.46
33795;BME280;51430;52.242;21.118;2024-01-11T11:58:52;100662.84;;;-0.49;99.85
33795;BME280;51430;52.242;21.118;2024-01-11T12:01:22;100658.55;;;-0.48;99.49
33795;BME280;51430;52.242;21.118;2024-01-11T12:03:52;100666.14;;;-0.57;99.39
33795;BME280;51430;52.242;21.118;2024-01-11T12:06:21;100651.61;;;-0.58;99.92
33795;BME280;51430;52.242;21.118;2024-01-11T12:08:52;100662.30;;;-0.61;99.87
33795;BME280;51430;52.242;21.118;2024-01-11T12:11:25;100659.27;;;-0.70;99.90
33795;BME280;51430;52.242;21.118;2024-01-11T12:13:54;100656.42;;;-0.72;100.00
33795;BME280;51430;52.242;21.118;2024-01-11T12:16:25;100657.99;;;-0.73;100.00
33795;BME280;51430;52.242;21.118;2024-01-11T12:18:52;100658.30;;;-0.72;100.00
33795;BME280;51430;52.242;21.118;2024-01-11T12:21:21;100655.95;;;-0.66;100.00
33795;BME280;51430;52.242;21.118;2024-01-11T12:23:49;100653.45;;;-0.63;100.00
33795;BME280;51430;52.242;21.118;2024-01-11T12:26:19;100643.95;;;-0.60;100.00
33795;BME280;51430;52.242;21.118;2024-01-11T12:28:51;100635.93;;;-0.47;100.00
33795;BME280;51430;52.242;21.118;2024-01-11T12:31:21;100631.73;;;-0.38;99.97
33795;BME280;51430;52.242;21.118;2024-01-11T12:33:49;100627.45;;;-0.38;99.77
33795;BME280;51430;52.242;21.118;2024-01-11T12:36:18;100626.66;;;-0.34;99.83
33795;BME280;51430;52.242;21.118;2024-01-11T12:38:46;100630.59;;;-0.34;99.62
33795;BME280;51430;52.242;21.118;2024-01-11T12:41:21;100627.38;;;-0.29;99.52
33795;BME280;51430;52.242;21.118;2024-01-11T12:43:51;100625.94;;;-0.32;99.04
33795;BME280;51430;52.242;21.118;2024-01-11T12:46:20;100629.48;;;-0.30;99.25
33795;BME280;51430;52.242;21.118;2024-01-11T12:48:49;100636.73;;;-0.26;99.06
33795;BME280;51430;52.242;21.118;2024-01-11T12:51:18;100633.61;;;-0.31;98.78
33795;BME280;51430;52.242;21.118;2024-01-11T12:53:53;100635.73;;;-0.34;98.85
33795;BME280;51430;52.242;21.118;2024-01-11T12:56:21;100633.90;;;-0.29;98.97
33795;BME280;51430;52.242;21.118;2024-01-11T12:58:51;100627.80;;;-0.26;98.94
33795;BME280;51430;52.242;21.118;2024-01-11T13:01:19;100620.37;;;-0.23;99.01
33795;BME280;51430;52.242;21.118;2024-01-11T13:03:48;100618.29;;;-0.16;99.19
33795;BME280;51430;52.242;21.118;2024-01-11T13:06:17;100622.66;;;-0.08;99.14
33795;BME280;51430;52.242;21.118;2024-01-11T13:08:50;100624.96;;;-0.04;98.82
33795;BME280;51430;52.242;21.118;2024-01-11T13:11:18;100622.94;;;0.07;98.43
33795;BME280;51430;52.242;21.118;2024-01-11T13:13:50;100622.97;;;0.12;98.38
33795;BME280;51430;52.242;21.118;2024-01-11T13:16:19;100627.98;;;0.04;98.13
33795;BME280;51430;52.242;21.118;2024-01-11T13:18:48;100633.20;;;0.14;98.38